ANA429 RJOO-RJFF
Flight info
| Callsign | ANA429 |
|---|---|
| Flight time | N/A |
| Altitude | 34000 |
| Route | SOUJA Y281 STOUT Y20 KIRIN |
| Aircraft | B772/H-SDE2E3FGHIJ5LORVWXY/LB1D1 |
Departure
| Time | 2026-05-01 15:29 |
|---|---|
| Airport | Osaka Itami International Airport (RJOO) |
Arrival
| Time | N/A |
|---|---|
| Airport | Fukuoka Airport (RJFF) |
| Time | Latitude | Longitude | Altitude | Speed | Heading |
|---|---|---|---|---|---|
| 2026-05-01 14:52 | 34.78867 | 135.44226 | 46 ft | 0 kts | 31° |
| 2026-05-01 15:11 | 34.78861 | 135.44221 | 46 ft | 2 kts | 32° |
| 2026-05-01 15:11 | 34.78847 | 135.44211 | -11 ft | 2 kts | 33° |
| 2026-05-01 15:12 | 34.78833 | 135.44200 | 62 ft | 2 kts | 34° |
| 2026-05-01 15:12 | 34.78806 | 135.44176 | 44 ft | 2 kts | 38° |
| 2026-05-01 15:12 | 34.78793 | 135.44163 | 45 ft | 2 kts | 42° |
| 2026-05-01 15:13 | 34.78765 | 135.44115 | 44 ft | 2 kts | 90° |
| 2026-05-01 15:14 | 34.78771 | 135.44092 | 41 ft | 0 kts | 133° |
| 2026-05-01 15:18 | 34.78725 | 135.44146 | 43 ft | 7 kts | 137° |
| 2026-05-01 15:18 | 34.78681 | 135.44199 | 43 ft | 11 kts | 136° |
| 2026-05-01 15:19 | 34.78462 | 135.44334 | 46 ft | 6 kts | 179° |
| 2026-05-01 15:19 | 34.78457 | 135.44334 | 46 ft | 0 kts | 179° |
| 2026-05-01 15:23 | 34.78452 | 135.44334 | 46 ft | 3 kts | 179° |
| 2026-05-01 15:23 | 34.78405 | 135.44334 | 47 ft | 11 kts | 179° |
| 2026-05-01 15:23 | 34.78323 | 135.44335 | 47 ft | 12 kts | 180° |
| 2026-05-01 15:24 | 34.78240 | 135.44335 | 46 ft | 12 kts | 180° |
| 2026-05-01 15:24 | 34.78163 | 135.44358 | 46 ft | 12 kts | 146° |
| 2026-05-01 15:24 | 34.78101 | 135.44424 | 46 ft | 12 kts | 134° |
| 2026-05-01 15:24 | 34.78043 | 135.44495 | 46 ft | 12 kts | 135° |
| 2026-05-01 15:25 | 34.77986 | 135.44566 | 46 ft | 12 kts | 135° |
| 2026-05-01 15:25 | 34.77928 | 135.44637 | 45 ft | 12 kts | 135° |
| 2026-05-01 15:25 | 34.77869 | 135.44707 | 46 ft | 12 kts | 136° |
| 2026-05-01 15:25 | 34.77810 | 135.44777 | 45 ft | 12 kts | 136° |
| 2026-05-01 15:26 | 34.77752 | 135.44847 | 46 ft | 12 kts | 135° |
| 2026-05-01 15:26 | 34.77688 | 135.44909 | 46 ft | 12 kts | 148° |
| 2026-05-01 15:26 | 34.77615 | 135.44955 | 46 ft | 12 kts | 154° |
| 2026-05-01 15:26 | 34.77541 | 135.44996 | 47 ft | 11 kts | 155° |
| 2026-05-01 15:27 | 34.77501 | 135.45013 | 47 ft | 0 kts | 170° |
| 2026-05-01 15:27 | 34.77498 | 135.45014 | 47 ft | 3 kts | 171° |
| 2026-05-01 15:27 | 34.77455 | 135.45003 | 48 ft | 7 kts | 209° |
| 2026-05-01 15:28 | 34.77455 | 135.44903 | 49 ft | 7 kts | 313° |
| 2026-05-01 15:28 | 34.77583 | 135.44742 | 47 ft | 57 kts | 315° |
| 2026-05-01 15:28 | 34.78067 | 135.44154 | 48 ft | 137 kts | 315° |
| 2026-05-01 15:29 | 34.79537 | 135.42297 | 1810 ft | 144 kts | 295° |
| 2026-05-01 15:29 | 34.79624 | 135.41047 | 2421 ft | 159 kts | 269° |
| 2026-05-01 15:29 | 34.78659 | 135.38076 | 2991 ft | 242 kts | 224° |
| 2026-05-01 15:30 | 34.74985 | 135.37713 | 4445 ft | 294 kts | 170° |
| 2026-05-01 15:31 | 34.66779 | 135.36133 | 7854 ft | 304 kts | 212° |
| 2026-05-01 15:31 | 34.64468 | 135.32461 | 9715 ft | 268 kts | 271° |
| 2026-05-01 15:32 | 34.65148 | 135.28247 | 11577 ft | 254 kts | 303° |
| 2026-05-01 15:32 | 34.66829 | 135.24347 | 12616 ft | 287 kts | 289° |
| 2026-05-01 15:33 | 34.68255 | 135.16294 | 14103 ft | 348 kts | 286° |
| 2026-05-01 15:34 | 34.69896 | 135.07617 | 17111 ft | 355 kts | 284° |